sensor_id;sensor_type;location;lat;lon;timestamp;pressure;altitude;pressure_sealevel;temperature
81177;BMP280;74095;48.270;14.200;2023-11-18T00:01:30;98531.56;;;3.43
81177;BMP280;74095;48.270;14.200;2023-11-18T00:03:56;98542.34;;;3.54
81177;BMP280;74095;48.270;14.200;2023-11-18T00:06:22;98541.91;;;3.57
81177;BMP280;74095;48.270;14.200;2023-11-18T00:08:48;98554.28;;;3.56
81177;BMP280;74095;48.270;14.200;2023-11-18T00:11:15;98567.47;;;3.56
81177;BMP280;74095;48.270;14.200;2023-11-18T00:13:41;98561.03;;;3.52
81177;BMP280;74095;48.270;14.200;2023-11-18T00:16:10;98572.84;;;3.49
81177;BMP280;74095;48.270;14.200;2023-11-18T00:18:41;98566.75;;;3.37
81177;BMP280;74095;48.270;14.200;2023-11-18T00:21:07;98581.13;;;3.41
81177;BMP280;74095;48.270;14.200;2023-11-18T00:23:34;98581.31;;;3.28
81177;BMP280;74095;48.270;14.200;2023-11-18T00:26:00;98572.22;;;3.13
81177;BMP280;74095;48.270;14.200;2023-11-18T00:28:26;98587.00;;;3.02
81177;BMP280;74095;48.270;14.200;2023-11-18T00:30:53;98594.06;;;2.90
81177;BMP280;74095;48.270;14.200;2023-11-18T00:33:18;98585.63;;;2.81
81177;BMP280;74095;48.270;14.200;2023-11-18T00:35:44;98582.72;;;2.71
81177;BMP280;74095;48.270;14.200;2023-11-18T00:38:11;98598.59;;;2.83
81177;BMP280;74095;48.270;14.200;2023-11-18T00:40:37;98591.00;;;2.75
81177;BMP280;74095;48.270;14.200;2023-11-18T00:43:03;98605.28;;;2.85
81177;BMP280;74095;48.270;14.200;2023-11-18T00:45:29;98618.91;;;2.94
81177;BMP280;74095;48.270;14.200;2023-11-18T00:47:55;98615.47;;;2.93
81177;BMP280;74095;48.270;14.200;2023-11-18T00:50:21;98632.97;;;3.06
81177;BMP280;74095;48.270;14.200;2023-11-18T00:52:47;98635.13;;;3.09
81177;BMP280;74095;48.270;14.200;2023-11-18T00:55:14;98633.97;;;3.05
81177;BMP280;74095;48.270;14.200;2023-11-18T00:57:40;98630.91;;;3.08
81177;BMP280;74095;48.270;14.200;2023-11-18T01:00:07;98649.50;;;3.13
81177;BMP280;74095;48.270;14.200;2023-11-18T01:02:33;98633.97;;;3.05
81177;BMP280;74095;48.270;14.200;2023-11-18T01:04:59;98642.50;;;3.07
81177;BMP280;74095;48.270;14.200;2023-11-18T01:07:25;98647.31;;;3.10
81177;BMP280;74095;48.270;14.200;2023-11-18T01:09:51;98656.97;;;3.16
81177;BMP280;74095;48.270;14.200;2023-11-18T01:12:17;98654.91;;;3.18
81177;BMP280;74095;48.270;14.200;2023-11-18T01:14:43;98661.28;;;3.11
81177;BMP280;74095;48.270;14.200;2023-11-18T01:17:09;98657.34;;;3.01
81177;BMP280;74095;48.270;14.200;2023-11-18T01:19:35;98643.78;;;2.98
81177;BMP280;74095;48.270;14.200;2023-11-18T01:22:01;98666.78;;;3.09
81177;BMP280;74095;48.270;14.200;2023-11-18T01:24:34;98663.88;;;2.99
81177;BMP280;74095;48.270;14.200;2023-11-18T01:27:01;98674.75;;;2.91
81177;BMP280;74095;48.270;14.200;2023-11-18T01:29:27;98674.00;;;2.84
81177;BMP280;74095;48.270;14.200;2023-11-18T01:31:53;98673.41;;;2.82
81177;BMP280;74095;48.270;14.200;2023-11-18T01:34:21;98666.91;;;2.84
81177;BMP280;74095;48.270;14.200;2023-11-18T01:36:50;98663.63;;;2.89
81177;BMP280;74095;48.270;14.200;2023-11-18T01:39:17;98684.28;;;2.92
81177;BMP280;74095;48.270;14.200;2023-11-18T01:41:46;98661.84;;;2.83
81177;BMP280;74095;48.270;14.200;2023-11-18T01:44:12;98676.66;;;2.84
81177;BMP280;74095;48.270;14.200;2023-11-18T01:46:42;98675.84;;;2.83
81177;BMP280;74095;48.270;14.200;2023-11-18T01:49:11;98658.78;;;2.86
81177;BMP280;74095;48.270;14.200;2023-11-18T01:51:43;98657.31;;;2.90
81177;BMP280;74095;48.270;14.200;2023-11-18T01:54:11;98661.69;;;2.96
81177;BMP280;74095;48.270;14.200;2023-11-18T01:56:46;98657.22;;;2.96
81177;BMP280;74095;48.270;14.200;2023-11-18T01:59:13;98652.38;;;2.93
81177;BMP280;74095;48.270;14.200;2023-11-18T02:01:49;98652.38;;;2.93
81177;BMP280;74095;48.270;14.200;2023-11-18T02:04:15;98655.28;;;2.92
81177;BMP280;74095;48.270;14.200;2023-11-18T02:06:42;98664.88;;;2.98
81177;BMP280;74095;48.270;14.200;2023-11-18T02:09:11;98662.03;;;2.99
81177;BMP280;74095;48.270;14.200;2023-11-18T02:11:48;98666.16;;;2.95
81177;BMP280;74095;48.270;14.200;2023-11-18T02:14:20;98669.72;;;3.01
81177;BMP280;74095;48.270;14.200;2023-11-18T02:16:49;98673.53;;;3.05
81177;BMP280;74095;48.270;14.200;2023-11-18T02:19:23;98655.38;;;2.97
81177;BMP280;74095;48.270;14.200;2023-11-18T02:21:51;98659.19;;;3.01
81177;BMP280;74095;48.270;14.200;2023-11-18T02:24:30;98672.06;;;3.09
81177;BMP280;74095;48.270;14.200;2023-11-18T02:26:59;98672.06;;;3.09
81177;BMP280;74095;48.270;14.200;2023-11-18T02:29:32;98666.00;;;3.09
81177;BMP280;74095;48.270;14.200;2023-11-18T02:32:08;98672.66;;;3.11
81177;BMP280;74095;48.270;14.200;2023-11-18T02:34:40;98666.78;;;3.09
81177;BMP280;74095;48.270;14.200;2023-11-18T02:37:11;98665.91;;;3.15
81177;BMP280;74095;48.270;14.200;2023-11-18T02:39:43;98672.56;;;3.18
81177;BMP280;74095;48.270;14.200;2023-11-18T02:42:10;98664.66;;;3.18
81177;BMP280;74095;48.270;14.200;2023-11-18T02:44:38;98672.34;;;3.19
81177;BMP280;74095;48.270;14.200;2023-11-18T02:47:04;98684.50;;;3.20
81177;BMP280;74095;48.270;14.200;2023-11-18T02:49:37;98684.94;;;3.17
81177;BMP280;74095;48.270;14.200;2023-11-18T02:52:03;98686.56;;;3.18
81177;BMP280;74095;48.270;14.200;2023-11-18T02:54:30;98692.41;;;3.20
81177;BMP280;74095;48.270;14.200;2023-11-18T02:56:56;98694.59;;;3.23
81177;BMP280;74095;48.270;14.200;2023-11-18T02:59:22;98692.75;;;3.24
81177;BMP280;74095;48.270;14.200;2023-11-18T03:01:53;98691.94;;;3.23
81177;BMP280;74095;48.270;14.200;2023-11-18T03:04:32;98683.56;;;3.26
81177;BMP280;74095;48.270;14.200;2023-11-18T03:07:11;98697.13;;;3.18
81177;BMP280;74095;48.270;14.200;2023-11-18T03:09:45;98700.56;;;3.00
81177;BMP280;74095;48.270;14.200;2023-11-18T03:12:13;98695.94;;;2.96
81177;BMP280;74095;48.270;14.200;2023-11-18T03:14:39;98704.31;;;2.93
81177;BMP280;74095;48.270;14.200;2023-11-18T03:17:08;98688.06;;;2.78
81177;BMP280;74095;48.270;14.200;2023-11-18T03:19:42;98699.56;;;2.83
81177;BMP280;74095;48.270;14.200;2023-11-18T03:22:09;98698.69;;;2.89
81177;BMP280;74095;48.270;14.200;2023-11-18T03:24:35;98698.00;;;2.94
81177;BMP280;74095;48.270;14.200;2023-11-18T03:27:04;98697.78;;;2.95
81177;BMP280;74095;48.270;14.200;2023-11-18T03:29:35;98700.63;;;2.94
81177;BMP280;74095;48.270;14.200;2023-11-18T03:32:02;98699.50;;;2.90
81177;BMP280;74095;48.270;14.200;2023-11-18T03:34:35;98699.28;;;2.91
81177;BMP280;74095;48.270;14.200;2023-11-18T03:37:01;98698.22;;;2.92
81177;BMP280;74095;48.270;14.200;2023-11-18T03:39:27;98697.53;;;2.85
81177;BMP280;74095;48.270;14.200;2023-11-18T03:41:54;98722.47;;;3.01
81177;BMP280;74095;48.270;14.200;2023-11-18T03:44:23;98705.22;;;2.98
81177;BMP280;74095;48.270;14.200;2023-11-18T03:46:50;98715.44;;;3.13
81177;BMP280;74095;48.270;14.200;2023-11-18T03:49:19;98706.47;;;3.14
81177;BMP280;74095;48.270;14.200;2023-11-18T03:51:48;98718.31;;;3.23
81177;BMP280;74095;48.270;14.200;2023-11-18T03:54:19;98716.84;;;3.27
81177;BMP280;74095;48.270;14.200;2023-11-18T03:56:45;98730.97;;;3.33
81177;BMP280;74095;48.270;14.200;2023-11-18T03:59:11;98718.69;;;3.27
81177;BMP280;74095;48.270;14.200;2023-11-18T04:01:43;98721.97;;;3.22
81177;BMP280;74095;48.270;14.200;2023-11-18T04:04:10;98729.44;;;3.25
81177;BMP280;74095;48.270;14.200;2023-11-18T04:06:36;98728.13;;;3.34
81177;BMP280;74095;48.270;14.200;2023-11-18T04:09:03;98719.75;;;3.37
81177;BMP280;74095;48.270;14.200;2023-11-18T04:11:29;98744.25;;;3.44
81177;BMP280;74095;48.270;14.200;2023-11-18T04:13:59;98741.09;;;3.47
81177;BMP280;74095;48.270;14.200;2023-11-18T04:16:28;98730.44;;;3.42
81177;BMP280;74095;48.270;14.200;2023-11-18T04:18:55;98738.84;;;3.51
81177;BMP280;74095;48.270;14.200;2023-11-18T04:21:24;98738.78;;;3.58
81177;BMP280;74095;48.270;14.200;2023-11-18T04:23:51;98728.22;;;3.58
81177;BMP280;74095;48.270;14.200;2023-11-18T04:26:17;98720.44;;;3.63
81177;BMP280;74095;48.270;14.200;2023-11-18T04:28:44;98730.75;;;3.76
81177;BMP280;74095;48.270;14.200;2023-11-18T04:31:12;98732.50;;;3.70
81177;BMP280;74095;48.270;14.200;2023-11-18T04:33:41;98746.09;;;3.56
81177;BMP280;74095;48.270;14.200;2023-11-18T04:36:09;98749.03;;;3.47
81177;BMP280;74095;48.270;14.200;2023-11-18T04:38:36;98755.91;;;3.48
81177;BMP280;74095;48.270;14.200;2023-11-18T04:41:02;98742.63;;;3.43
81177;BMP280;74095;48.270;14.200;2023-11-18T04:43:32;98750.22;;;3.52
81177;BMP280;74095;48.270;14.200;2023-11-18T04:45:59;98735.97;;;3.41
81177;BMP280;74095;48.270;14.200;2023-11-18T04:48:25;98741.84;;;3.55
81177;BMP280;74095;48.270;14.200;2023-11-18T04:50:52;98746.09;;;3.56
81177;BMP280;74095;48.270;14.200;2023-11-18T04:53:21;98748.75;;;3.56
81177;BMP280;74095;48.270;14.200;2023-11-18T04:55:50;98761.03;;;3.62
81177;BMP280;74095;48.270;14.200;2023-11-18T04:58:16;98756.50;;;3.69
81177;BMP280;74095;48.270;14.200;2023-11-18T05:00:43;98766.59;;;3.72
81177;BMP280;74095;48.270;14.200;2023-11-18T05:03:09;98757.13;;;3.53
81177;BMP280;74095;48.270;14.200;2023-11-18T05:05:37;98770.69;;;3.38
81177;BMP280;74095;48.270;14.200;2023-11-18T05:08:07;98766.88;;;3.34
81177;BMP280;74095;48.270;14.200;2023-11-18T05:10:34;98763.81;;;3.37
81177;BMP280;74095;48.270;14.200;2023-11-18T05:13:05;98771.06;;;3.41
81177;BMP280;74095;48.270;14.200;2023-11-18T05:15:33;98748.78;;;3.37
81177;BMP280;74095;48.270;14.200;2023-11-18T05:17:59;98751.00;;;3.40
81177;BMP280;74095;48.270;14.200;2023-11-18T05:20:26;98762.81;;;3.49
81177;BMP280;74095;48.270;14.200;2023-11-18T05:22:53;98769.25;;;3.54
81177;BMP280;74095;48.270;14.200;2023-11-18T05:25:20;98764.66;;;3.49
81177;BMP280;74095;48.270;14.200;2023-11-18T05:27:46;98765.25;;;3.51
81177;BMP280;74095;48.270;14.200;2023-11-18T05:30:12;98775.78;;;3.51
81177;BMP280;74095;48.270;14.200;2023-11-18T05:32:39;98779.44;;;3.50
81177;BMP280;74095;48.270;14.200;2023-11-18T05:35:11;98761.56;;;3.52
81177;BMP280;74095;48.270;14.200;2023-11-18T05:37:38;98761.56;;;3.52
81177;BMP280;74095;48.270;14.200;2023-11-18T05:40:10;98770.88;;;3.55
81177;BMP280;74095;48.270;14.200;2023-11-18T05:42:40;98781.44;;;3.55
81177;BMP280;74095;48.270;14.200;2023-11-18T05:45:08;98787.28;;;3.57
81177;BMP280;74095;48.270;14.200;2023-11-18T05:47:37;98778.56;;;3.56
81177;BMP280;74095;48.270;14.200;2023-11-18T05:50:03;98770.44;;;3.58
81177;BMP280;74095;48.270;14.200;2023-11-18T05:52:31;98784.44;;;3.58
81177;BMP280;74095;48.270;14.200;2023-11-18T05:54:58;98779.81;;;3.54
81177;BMP280;74095;48.270;14.200;2023-11-18T05:57:25;98779.38;;;3.57
81177;BMP280;74095;48.270;14.200;2023-11-18T05:59:54;98759.25;;;3.44
81177;BMP280;74095;48.270;14.200;2023-11-18T06:02:21;98773.97;;;3.52
81177;BMP280;74095;48.270;14.200;2023-11-18T06:04:47;98792.19;;;3.53
81177;BMP280;74095;48.270;14.200;2023-11-18T06:07:19;98786.56;;;3.49
81177;BMP280;74095;48.270;14.200;2023-11-18T06:09:46;98791.59;;;3.39
81177;BMP280;74095;48.270;14.200;2023-11-18T06:12:12;98793.34;;;3.45
81177;BMP280;74095;48.270;14.200;2023-11-18T06:14:39;98802.38;;;3.49
81177;BMP280;74095;48.270;14.200;2023-11-18T06:17:10;98807.66;;;3.49
81177;BMP280;74095;48.270;14.200;2023-11-18T06:19:39;98803.56;;;3.54
81177;BMP280;74095;48.270;14.200;2023-11-18T06:22:05;98803.00;;;3.52
81177;BMP280;74095;48.270;14.200;2023-11-18T06:24:32;98817.34;;;3.56
81177;BMP280;74095;48.270;14.200;2023-11-18T06:27:03;98784.56;;;3.33
81177;BMP280;74095;48.270;14.200;2023-11-18T06:29:29;98818.00;;;3.51
81177;BMP280;74095;48.270;14.200;2023-11-18T06:31:58;98820.88;;;3.49
81177;BMP280;74095;48.270;14.200;2023-11-18T06:34:29;98828.19;;;3.47
81177;BMP280;74095;48.270;14.200;2023-11-18T06:36:55;98831.69;;;3.60
81177;BMP280;74095;48.270;14.200;2023-11-18T06:39:24;98830.00;;;3.65
81177;BMP280;74095;48.270;14.200;2023-11-18T06:41:58;98810.31;;;3.49
81177;BMP280;74095;48.270;14.200;2023-11-18T06:44:27;98841.28;;;3.72
81177;BMP280;74095;48.270;14.200;2023-11-18T06:46:57;98837.63;;;3.73
81177;BMP280;74095;48.270;14.200;2023-11-18T06:49:27;98840.50;;;4.02
81177;BMP280;74095;48.270;14.200;2023-11-18T06:51:55;98848.97;;;4.33
81177;BMP280;74095;48.270;14.200;2023-11-18T06:54:24;98843.56;;;4.63
81177;BMP280;74095;48.270;14.200;2023-11-18T06:56:53;98842.84;;;4.91
81177;BMP280;74095;48.270;14.200;2023-11-18T06:59:19;98836.63;;;5.09
81177;BMP280;74095;48.270;14.200;2023-11-18T07:01:46;98845.19;;;4.99
81177;BMP280;74095;48.270;14.200;2023-11-18T07:04:13;98852.41;;;5.15
81177;BMP280;74095;48.270;14.200;2023-11-18T07:06:40;98849.47;;;5.40
81177;BMP280;74095;48.270;14.200;2023-11-18T07:09:08;98850.28;;;5.69
81177;BMP280;74095;48.270;14.200;2023-11-18T07:11:42;98849.69;;;5.95
81177;BMP280;74095;48.270;14.200;2023-11-18T07:14:09;98840.00;;;6.17
81177;BMP280;74095;48.270;14.200;2023-11-18T07:16:39;98834.47;;;6.36
81177;BMP280;74095;48.270;14.200;2023-11-18T07:19:06;98841.16;;;6.55
81177;BMP280;74095;48.270;14.200;2023-11-18T07:21:35;98840.47;;;6.81
81177;BMP280;74095;48.270;14.200;2023-11-18T07:24:01;98847.22;;;7.10
81177;BMP280;74095;48.270;14.200;2023-11-18T07:26:30;98847.88;;;7.44
81177;BMP280;74095;48.270;14.200;2023-11-18T07:28:56;98851.13;;;7.73
81177;BMP280;74095;48.270;14.200;2023-11-18T07:31:23;98851.94;;;8.05
81177;BMP280;74095;48.270;14.200;2023-11-18T07:33:50;98843.09;;;8.32
81177;BMP280;74095;48.270;14.200;2023-11-18T07:36:20;98873.03;;;8.49
81177;BMP280;74095;48.270;14.200;2023-11-18T07:38:47;98867.13;;;8.42
81177;BMP280;74095;48.270;14.200;2023-11-18T07:41:16;98877.00;;;8.46
81177;BMP280;74095;48.270;14.200;2023-11-18T07:44:02;98863.97;;;8.50
81177;BMP280;74095;48.270;14.200;2023-11-18T07:46:28;98864.81;;;8.55
81177;BMP280;74095;48.270;14.200;2023-11-18T07:48:56;98868.41;;;8.76
81177;BMP280;74095;48.270;14.200;2023-11-18T07:51:26;98865.97;;;9.21
81177;BMP280;74095;48.270;14.200;2023-11-18T07:53:56;98862.88;;;9.55
81177;BMP280;74095;48.270;14.200;2023-11-18T07:56:25;98866.66;;;9.89
81177;BMP280;74095;48.270;14.200;2023-11-18T07:58:58;98865.09;;;10.18
81177;BMP280;74095;48.270;14.200;2023-11-18T08:01:34;98868.75;;;10.48
81177;BMP280;74095;48.270;14.200;2023-11-18T08:04:00;98866.84;;;10.73
81177;BMP280;74095;48.270;14.200;2023-11-18T08:06:26;98871.84;;;11.00
81177;BMP280;74095;48.270;14.200;2023-11-18T08:09:08;98871.75;;;11.20
81177;BMP280;74095;48.270;14.200;2023-11-18T08:11:37;98861.69;;;11.02
81177;BMP280;74095;48.270;14.200;2023-11-18T08:14:08;98884.91;;;11.02
81177;BMP280;74095;48.270;14.200;2023-11-18T08:16:37;98880.34;;;11.07
81177;BMP280;74095;48.270;14.200;2023-11-18T08:19:03;98894.97;;;11.25
81177;BMP280;74095;48.270;14.200;2023-11-18T08:21:31;98886.88;;;11.35
81177;BMP280;74095;48.270;14.200;2023-11-18T08:23:58;98890.28;;;11.56
81177;BMP280;74095;48.270;14.200;2023-11-18T08:26:26;98879.81;;;11.59
81177;BMP280;74095;48.270;14.200;2023-11-18T08:28:53;98892.44;;;11.93
81177;BMP280;74095;48.270;14.200;2023-11-18T08:31:22;98895.69;;;12.18
81177;BMP280;74095;48.270;14.200;2023-11-18T08:33:51;98900.88;;;12.38
81177;BMP280;74095;48.270;14.200;2023-11-18T08:36:25;98898.78;;;12.59
81177;BMP280;74095;48.270;14.200;2023-11-18T08:38:58;98898.97;;;12.68
81177;BMP280;74095;48.270;14.200;2023-11-18T08:41:28;98882.03;;;12.72
81177;BMP280;74095;48.270;14.200;2023-11-18T08:43:57;98895.09;;;12.79
81177;BMP280;74095;48.270;14.200;2023-11-18T08:46:28;98907.16;;;13.00
81177;BMP280;74095;48.270;14.200;2023-11-18T08:48:57;98899.84;;;12.87
81177;BMP280;74095;48.270;14.200;2023-11-18T08:51:23;98898.91;;;12.73
81177;BMP280;74095;48.270;14.200;2023-11-18T08:53:52;98886.38;;;12.39
81177;BMP280;74095;48.270;14.200;2023-11-18T08:56:20;98905.50;;;12.57
81177;BMP280;74095;48.270;14.200;2023-11-18T08:58:51;98911.44;;;12.77
81177;BMP280;74095;48.270;14.200;2023-11-18T09:01:17;98915.72;;;12.50
81177;BMP280;74095;48.270;14.200;2023-11-18T09:03:49;98922.38;;;12.57
81177;BMP280;74095;48.270;14.200;2023-11-18T09:06:20;98916.00;;;12.53
81177;BMP280;74095;48.270;14.200;2023-11-18T09:08:54;98912.38;;;12.63
81177;BMP280;74095;48.270;14.200;2023-11-18T09:11:22;98936.06;;;12.51
81177;BMP280;74095;48.270;14.200;2023-11-18T09:13:52;98937.16;;;12.55
81177;BMP280;74095;48.270;14.200;2023-11-18T09:16:26;98932.28;;;12.28
81177;BMP280;74095;48.270;14.200;2023-11-18T09:18:56;98939.84;;;12.55
81177;BMP280;74095;48.270;14.200;2023-11-18T09:21:25;98927.94;;;12.61
81177;BMP280;74095;48.270;14.200;2023-11-18T09:23:55;98931.78;;;12.78
81177;BMP280;74095;48.270;14.200;2023-11-18T09:26:24;98931.78;;;12.78
81177;BMP280;74095;48.270;14.200;2023-11-18T09:28:55;98941.44;;;12.79
81177;BMP280;74095;48.270;14.200;2023-11-18T09:31:23;98934.13;;;12.85
81177;BMP280;74095;48.270;14.200;2023-11-18T09:33:50;98939.84;;;12.55
81177;BMP280;74095;48.270;14.200;2023-11-18T09:36:20;98942.44;;;12.60
81177;BMP280;74095;48.270;14.200;2023-11-18T09:38:47;98937.28;;;12.92
81177;BMP280;74095;48.270;14.200;2023-11-18T09:41:14;98928.19;;;12.64
81177;BMP280;74095;48.270;14.200;2023-11-18T09:43:44;98923.56;;;12.12
81177;BMP280;74095;48.270;14.200;2023-11-18T09:46:27;98930.53;;;12.13
81177;BMP280;74095;48.270;14.200;2023-11-18T09:49:19;98914.19;;;12.49
81177;BMP280;74095;48.270;14.200;2023-11-18T09:51:57;98908.59;;;12.69
81177;BMP280;74095;48.270;14.200;2023-11-18T09:57:31;98893.31;;;12.93
81177;BMP280;74095;48.270;14.200;2023-11-18T10:00:07;98888.72;;;12.75
81177;BMP280;74095;48.270;14.200;2023-11-18T10:02:46;98881.38;;;13.04
81177;BMP280;74095;48.270;14.200;2023-11-18T10:05:13;98898.72;;;13.30
81177;BMP280;74095;48.270;14.200;2023-11-18T10:07:44;98891.75;;;13.67
81177;BMP280;74095;48.270;14.200;2023-11-18T10:10:11;98893.66;;;13.98
81177;BMP280;74095;48.270;14.200;2023-11-18T10:12:43;98887.50;;;13.84
81177;BMP280;74095;48.270;14.200;2023-11-18T10:15:13;98873.94;;;13.76
81177;BMP280;74095;48.270;14.200;2023-11-18T10:17:41;98895.59;;;13.61
81177;BMP280;74095;48.270;14.200;2023-11-18T10:20:44;98889.47;;;13.60
81177;BMP280;74095;48.270;14.200;2023-11-18T10:23:11;98891.88;;;13.94
81177;BMP280;74095;48.270;14.200;2023-11-18T10:25:45;98898.81;;;13.81
81177;BMP280;74095;48.270;14.200;2023-11-18T10:28:30;98887.84;;;13.78
81177;BMP280;74095;48.270;14.200;2023-11-18T10:31:00;98895.69;;;13.56
81177;BMP280;74095;48.270;14.200;2023-11-18T10:33:31;98886.09;;;13.12
81177;BMP280;74095;48.270;14.200;2023-11-18T10:35:57;98879.97;;;12.64
81177;BMP280;74095;48.270;14.200;2023-11-18T10:38:24;98883.16;;;12.43
81177;BMP280;74095;48.270;14.200;2023-11-18T10:40:54;98895.63;;;12.23
81177;BMP280;74095;48.270;14.200;2023-11-18T10:43:21;98894.03;;;11.94
81177;BMP280;74095;48.270;14.200;2023-11-18T10:46:04;98892.72;;;11.47
81177;BMP280;74095;48.270;14.200;2023-11-18T10:48:30;98889.94;;;11.13
81177;BMP280;74095;48.270;14.200;2023-11-18T10:50:56;98887.34;;;10.93
81177;BMP280;74095;48.270;14.200;2023-11-18T10:53:24;98897.47;;;10.96
81177;BMP280;74095;48.270;14.200;2023-11-18T10:55:52;98896.19;;;10.89
81177;BMP280;74095;48.270;14.200;2023-11-18T10:58:18;98895.94;;;10.75
81177;BMP280;74095;48.270;14.200;2023-11-18T11:00:49;98887.44;;;10.53
81177;BMP280;74095;48.270;14.200;2023-11-18T11:03:15;98907.19;;;10.42
81177;BMP280;74095;48.270;14.200;2023-11-18T11:05:41;98906.97;;;10.18
81177;BMP280;74095;48.270;14.200;2023-11-18T11:08:11;98900.03;;;10.22
81177;BMP280;74095;48.270;14.200;2023-11-18T11:10:43;98901.06;;;10.26
81177;BMP280;74095;48.270;14.200;2023-11-18T11:13:09;98885.88;;;10.27
81177;BMP280;74095;48.270;14.200;2023-11-18T11:15:43;98887.47;;;10.33
81177;BMP280;74095;48.270;14.200;2023-11-18T11:18:19;98886.41;;;10.34
81177;BMP280;74095;48.270;14.200;2023-11-18T11:20:58;98884.53;;;10.24
81177;BMP280;74095;48.270;14.200;2023-11-18T11:23:50;98889.06;;;10.23
81177;BMP280;74095;48.270;14.200;2023-11-18T11:26:45;98895.47;;;10.28
81177;BMP280;74095;48.270;14.200;2023-11-18T11:29:36;98888.81;;;10.20
81177;BMP280;74095;48.270;14.200;2023-11-18T11:35:00;98898.66;;;9.99
81177;BMP280;74095;48.270;14.200;2023-11-18T11:37:33;98891.72;;;9.98
81177;BMP280;74095;48.270;14.200;2023-11-18T11:40:02;98896.50;;;9.81
81177;BMP280;74095;48.270;14.200;2023-11-18T11:42:35;98891.72;;;9.93
81177;BMP280;74095;48.270;14.200;2023-11-18T11:45:02;98883.75;;;9.88
81177;BMP280;74095;48.270;14.200;2023-11-18T11:47:29;98890.09;;;9.72
81177;BMP280;74095;48.270;14.200;2023-11-18T11:50:13;98888.50;;;9.76
81177;BMP280;74095;48.270;14.200;2023-11-18T11:52:53;98903.97;;;9.69
81177;BMP280;74095;48.270;14.200;2023-11-18T11:55:46;98892.50;;;9.68
81177;BMP280;74095;48.270;14.200;2023-11-18T11:58:34;98891.69;;;9.58
81177;BMP280;74095;48.270;14.200;2023-11-18T12:01:22;98882.31;;;9.55
81177;BMP280;74095;48.270;14.200;2023-11-18T12:03:52;98890.09;;;9.62
81177;BMP280;74095;48.270;14.200;2023-11-18T12:06:24;98885.31;;;9.69
81177;BMP280;74095;48.270;14.200;2023-11-18T12:08:54;98890.91;;;9.67
81177;BMP280;74095;48.270;14.200;2023-11-18T12:11:21;98888.47;;;9.66
81177;BMP280;74095;48.270;14.200;2023-11-18T12:14:04;98887.69;;;9.65
81177;BMP280;74095;48.270;14.200;2023-11-18T12:17:04;98886.34;;;9.63
81177;BMP280;74095;48.270;14.200;2023-11-18T12:19:47;98885.81;;;9.61
81177;BMP280;74095;48.270;14.200;2023-11-18T12:35:22;98866.53;;;9.29
81177;BMP280;74095;48.270;14.200;2023-11-18T12:40:42;98848.97;;;9.38
81177;BMP280;74095;48.270;14.200;2023-11-18T12:43:16;98844.69;;;9.32
81177;BMP280;74095;48.270;14.200;2023-11-18T12:48:43;98851.06;;;9.26
81177;BMP280;74095;48.270;14.200;2023-11-18T12:51:13;98854.84;;;9.35
81177;BMP280;74095;48.270;14.200;2023-11-18T12:53:48;98848.16;;;9.32
81177;BMP280;74095;48.270;14.200;2023-11-18T12:56:25;98850.28;;;9.25
81177;BMP280;74095;48.270;14.200;2023-11-18T12:58:51;98851.59;;;9.23
81177;BMP280;74095;48.270;14.200;2023-11-18T13:01:17;98845.72;;;9.20
81177;BMP280;74095;48.270;14.200;2023-11-18T13:03:44;98833.72;;;9.18
81177;BMP280;74095;48.270;14.200;2023-11-18T13:06:11;98844.66;;;9.27
81177;BMP280;74095;48.270;14.200;2023-11-18T13:08:41;98832.41;;;9.20
81177;BMP280;74095;48.270;14.200;2023-11-18T13:11:07;98825.22;;;9.36
81177;BMP280;74095;48.270;14.200;2023-11-18T13:13:38;98816.50;;;9.51
81177;BMP280;74095;48.270;14.200;2023-11-18T13:16:06;98829.84;;;9.61
81177;BMP280;74095;48.270;14.200;2023-11-18T13:18:52;98805.59;;;9.52
81177;BMP280;74095;48.270;14.200;2023-11-18T13:21:20;98817.56;;;9.65
81177;BMP280;74095;48.270;14.200;2023-11-18T13:23:49;98820.53;;;9.68
81177;BMP280;74095;48.270;14.200;2023-11-18T13:26:19;98809.84;;;9.53
81177;BMP280;74095;48.270;14.200;2023-11-18T13:28:46;98807.97;;;9.54
81177;BMP280;74095;48.270;14.200;2023-11-18T13:31:13;98814.38;;;9.53
81177;BMP280;74095;48.270;14.200;2023-11-18T13:33:48;98806.91;;;9.35
81177;BMP280;74095;48.270;14.200;2023-11-18T13:36:16;98805.31;;;9.44
81177;BMP280;74095;48.270;14.200;2023-11-18T13:38:43;98802.59;;;9.29
81177;BMP280;74095;48.270;14.200;2023-11-18T13:41:09;98797.28;;;9.34
81177;BMP280;74095;48.270;14.200;2023-11-18T13:43:42;98798.06;;;9.29
81177;BMP280;74095;48.270;14.200;2023-11-18T13:46:12;98789.03;;;9.30
81177;BMP280;74095;48.270;14.200;2023-11-18T13:48:39;98778.38;;;9.30
81177;BMP280;74095;48.270;14.200;2023-11-18T13:51:11;98785.28;;;9.26
81177;BMP280;74095;48.270;14.200;2023-11-18T13:53:42;98797.03;;;9.30
81177;BMP280;74095;48.270;14.200;2023-11-18T13:56:12;98795.13;;;9.26
81177;BMP280;74095;48.270;14.200;2023-11-18T13:58:39;98788.72;;;9.16
81177;BMP280;74095;48.270;14.200;2023-11-18T14:01:06;98787.41;;;9.14
81177;BMP280;74095;48.270;14.200;2023-11-18T14:03:36;98791.38;;;9.11
81177;BMP280;74095;48.270;14.200;2023-11-18T14:06:06;98793.19;;;8.96
81177;BMP280;74095;48.270;14.200;2023-11-18T14:08:32;98804.34;;;8.93
81177;BMP280;74095;48.270;14.200;2023-11-18T14:11:00;98815.28;;;8.96
81177;BMP280;74095;48.270;14.200;2023-11-18T14:13:26;98805.66;;;8.90
81177;BMP280;74095;48.270;14.200;2023-11-18T14:15:59;98806.47;;;8.91
81177;BMP280;74095;48.270;14.200;2023-11-18T14:18:25;98808.84;;;8.92
81177;BMP280;74095;48.270;14.200;2023-11-18T14:20:52;98808.84;;;8.92
81177;BMP280;74095;48.270;14.200;2023-11-18T14:23:18;98811.56;;;8.97
81177;BMP280;74095;48.270;14.200;2023-11-18T14:25:47;98807.31;;;8.96
81177;BMP280;74095;48.270;14.200;2023-11-18T14:28:13;98819.25;;;8.99
81177;BMP280;74095;48.270;14.200;2023-11-18T14:30:39;98817.16;;;9.01
81177;BMP280;74095;48.270;14.200;2023-11-18T14:33:08;98801.44;;;8.99
81177;BMP280;74095;48.270;14.200;2023-11-18T14:35:34;98819.25;;;8.99
81177;BMP280;74095;48.270;14.200;2023-11-18T14:38:01;98823.28;;;9.01
81177;BMP280;74095;48.270;14.200;2023-11-18T14:40:26;98805.44;;;8.97
81177;BMP280;74095;48.270;14.200;2023-11-18T14:42:54;98806.75;;;8.94
81177;BMP280;74095;48.270;14.200;2023-11-18T14:45:20;98813.44;;;8.97